11 sierpnia 2022

Czas Kod Pogoda Temp. Widoczność Sufit Wiatr METAR/SPECI
21:00
V
20 °C 10 km+ - 110° 110° 15 kt METAR FIMP 111700Z 11015KT 9999 SCT017 20/14 Q1025
20:00
V
20 °C 10 km+ - 120° 120° 13 kt METAR FIMP 111600Z 12013KT 9999 VCSH SCT016 SCT050 20/15 Q1025
19:00
M
20 °C 8 km 1.500 ft 110° 110° 13 kt METAR FIMP 111500Z 11013KT 8000 -SHRA BKN015 SCT050 20/16 Q1024
18:00
M
20 °C 6 km 1.500 ft 100° 100° 16 kt METAR FIMP 111400Z 10016KT 6000 -SHRA FEW009 BKN015 20/18 Q1024
17:00
V
21 °C 10 km+ - 120° 120° 13 kt METAR FIMP 111300Z 12013KT 9999 SCT016 21/16 Q1023
16:00
V
23 °C 10 km+ - 110° 110° 15 kt METAR FIMP 111200Z 11015KT 9999 SCT016 23/14 Q1023
15:00
V
22 °C 10 km+ 5.000 ft 110° 110° 15 kt METAR FIMP 111100Z 11015KT 9999 FEW015 BKN050 22/14 Q1023
14:00
V
23 °C 10 km+ 5.000 ft 110° 110° 16 kt METAR FIMP 111000Z 11016KT 9999 VCSH SCT015 BKN050 23/15 Q1024
13:00
M
22 °C 10 km+ 1.600 ft 120° 120° 14 kt METAR FIMP 110900Z 12014KT 9999 BKN016 22/15 Q1024
12:00
V
23 °C 10 km+ - 130° 130° 16 kt METAR FIMP 110800Z 13016KT 9999 SCT016 23/14 Q1024
11:00
V
23 °C 10 km+ 5.000 ft 140° 140° 13 - 23 kt METAR FIMP 110700Z 14013G23KT 9999 VCSH FEW015 BKN050 23/14 Q1025
10:00
V
22 °C 10 km+ 5.000 ft 120° 120° 14 kt METAR FIMP 110600Z 12014KT 9999 SCT016 BKN050 22/12 Q1025
09:00
V
22 °C 10 km+ - 110° 110° 11 kt METAR FIMP 110500Z 11011KT 9999 SCT016 SCT050 22/12 Q1025
08:00
V
21 °C 10 km+ 5.000 ft 120° 120° 11 kt METAR FIMP 110400Z 12011KT 9999 SCT016 BKN050 21/14 Q1025
07:00
V
20 °C 8 km 5.000 ft 120° 120° 14 - 24 kt METAR FIMP 110300Z 12014G24KT 8000 VCSH FEW010 SCT015 BKN050 20/14 Q1024
06:00
V
19 °C 10 km+ - 120° 120° 12 kt METAR FIMP 110200Z 12012KT 9999 VCSH SCT015 SCT050 19/14 Q1024
05:00
M
19 °C 10 km+ 1.500 ft 080° 080° 16 kt METAR FIMP 110100Z 08016KT 9999 VCSH BKN015 SCT050 19/15 Q1024
04:00
V
19 °C 10 km+ - 130° 130° 11 kt METAR FIMP 110000Z 13011KT 9999 VCSH SCT016 SCT050 19/14 Q1024
03:00
M
18 °C 10 km+ 1.600 ft 130° 130° 10 - 28 kt METAR FIMP 102300Z 13010G28KT 9999 VCSH BKN016 SCT050 18/15 Q1024
02:00
V
20 °C 10 km+ - 120° 120° 12 kt METAR FIMP 102200Z 12012KT 9999 VCSH SCT016 SCT050 20/13 Q1024
01:00
V
19 °C 10 km+ - 110° 110° 15 kt METAR FIMP 102100Z 11015KT 9999 VCSH SCT016 SCT050 19/15 Q1024
00:00
V
19 °C 10 km+ - 120° 120° 13 kt METAR FIMP 102000Z 12013KT 9999 VCSH SCT016 SCT050 19/14 Q1025

10 sierpnia 2022

Czas Kod Pogoda Temp. Widoczność Sufit Wiatr METAR/SPECI
23:00
V
20 °C 10 km+ - 140° 140° 16 kt METAR FIMP 101900Z 14016KT 9999 VCSH SCT016 SCT050 20/13 Q1025
22:00
V
21 °C 10 km+ - 130° 130° 16 kt METAR FIMP 101800Z 13016KT 9999 SCT016 SCT050 21/11 Q1024
21:00
V
21 °C 10 km+ - 140° 140° 15 kt METAR FIMP 101700Z 14015KT 9999 SCT016 SCT050 21/12 Q1024
20:00
V
21 °C 10 km+ 5.000 ft 130° 130° 16 kt METAR FIMP 101600Z 13016KT 9999 SCT016 BKN050 21/13 Q1024
19:00
V
21 °C 10 km+ 5.000 ft 140° 140° 16 kt METAR FIMP 101500Z 14016KT 9999 SCT016 BKN050 21/11 Q1024
18:00
V
21 °C 10 km+ - 150° 150° 13 kt METAR FIMP 101400Z 15013KT 9999 SCT016 SCT050 21/11 Q1023
17:00
M
21 °C 10 km+ 1.600 ft 130° 130° 15 kt METAR FIMP 101300Z 13015KT 9999 BKN016 SCT050 21/13 Q1023
16:00
M
22 °C 10 km+ 1.600 ft 130° 130° 15 kt METAR FIMP 101200Z 13015KT 9999 VCSH BKN016 22/12 Q1023
15:00
M
23 °C 10 km+ 1.600 ft 130° 130° 17 kt METAR FIMP 101100Z 13017KT 9999 VCSH BKN016 23/13 Q1022
14:00
V
23 °C 10 km+ - 120° 120° 15 kt METAR FIMP 101000Z 12015KT 9999 SCT017 23/12 Q1023
13:00
M
23 °C 10 km+ 1.700 ft 120° 120° 16 kt METAR FIMP 100900Z 12016KT 9999 BKN017 23/13 Q1023
12:00
M
22 °C 10 km+ 1.600 ft 130° 130° 12 kt METAR FIMP 100800Z 13012KT 9999 VCSH BKN016 22/14 Q1024
11:00
M
22 °C 10 km+ 1.600 ft 120° 120° 17 kt METAR FIMP 100700Z 12017KT 9999 VCSH BKN016 22/14 Q1025
10:00
M
22 °C 10 km+ 1.600 ft 140° 140° 11 - 30 kt METAR FIMP 100600Z 14011G30KT 9999 VCSH BKN016 22/15 Q1025
09:00
M
21 °C 10 km+ 1.600 ft 120° 120° 18 kt METAR FIMP 100500Z 12018KT 9999 VCSH BKN016 21/14 Q1025
08:00
M
20 °C 10 km+ 1.600 ft 150° 150° 14 - 25 kt METAR FIMP 100400Z 15014G25KT 9999 VCSH BKN016 20/15 Q1024
07:00
M
20 °C 10 km+ 1.600 ft 120° 120° 16 kt METAR FIMP 100300Z 12016KT 9999 VCSH BKN016 SCT050 20/14 Q1024
06:00
M
20 °C 10 km+ 1.600 ft 140° 140° 14 - 24 kt METAR FIMP 100200Z 14014G24KT 9999 BKN016 20/15 Q1023
05:00
M
21 °C 10 km+ 1.600 ft 150° 150° 14 kt METAR FIMP 100100Z 15014KT 9999 BKN016 21/14 Q1022
04:00
M
21 °C 10 km+ 1.600 ft 140° 140° 13 kt METAR FIMP 100000Z 14013KT 9999 BKN016 SCT050 21/13 Q1022
03:00
M
21 °C 10 km+ 1.600 ft 130° 130° 11 kt METAR FIMP 092300Z 13011KT 9999 BKN016 SCT050 21/14 Q1022
02:00
M
20 °C 10 km+ 1.600 ft 150° 150° 9 kt METAR FIMP 092200Z 15009KT 9999 BKN016 20/15 Q1022
01:00
V
20 °C 10 km+ - 150° 150° 11 kt METAR FIMP 092100Z 15011KT 9999 SCT017 20/13 Q1023
00:00
V
20 °C 10 km+ - 140° 140° 11 kt METAR FIMP 092000Z 14011KT 9999 SCT017 20/14 Q1023

9 sierpnia 2022

Czas Kod Pogoda Temp. Widoczność Sufit Wiatr METAR/SPECI
23:00
M
20 °C 10 km+ 1.600 ft 140° 140° 11 kt METAR FIMP 091900Z 14011KT 9999 BKN016 20/14 Q1023
22:00
M
20 °C 10 km+ 1.600 ft 150° 150° 16 kt METAR FIMP 091800Z 15016KT 9999 BKN016 20/14 Q1023
21:00
M
21 °C 10 km+ 1.500 ft 150° 150° 15 kt METAR FIMP 091700Z 15015KT 9999 BKN015 SCT050 21/15 Q1023
20:00
M
21 °C 10 km+ 1.500 ft 150° 150° 15 kt METAR FIMP 091600Z 15015KT 9999 VCSH BKN015 SCT050 21/16 Q1023
19:00
M
21 °C 10 km+ 1.500 ft 150° 150° 16 kt METAR FIMP 091500Z 15016KT 9999 VCSH FEW009 BKN015 21/17 Q1022
Starsze dane

My i osoby trzecie śledzimy twoje zachowanie w internecie na naszej stronie za pomocą plików cookie. Jeśli kontynuujesz, zakładamy, że zgadzasz się z naszą polityką plików cookie. Dowiedz się więcej